sensor_id;sensor_type;location;lat;lon;timestamp;temperature;humidity
7920;DHT22;18778;47.610;9.776;2023-06-01T00:02:00;13.20;99.70
7920;DHT22;18778;47.610;9.776;2023-06-01T00:04:25;13.10;99.70
7920;DHT22;18778;47.610;9.776;2023-06-01T00:06:51;13.10;99.90
7920;DHT22;18778;47.610;9.776;2023-06-01T00:09:16;13.00;99.90
7920;DHT22;18778;47.610;9.776;2023-06-01T00:11:42;13.00;99.90
7920;DHT22;18778;47.610;9.776;2023-06-01T00:14:08;13.00;99.90
7920;DHT22;18778;47.610;9.776;2023-06-01T00:16:34;13.00;99.90
7920;DHT22;18778;47.610;9.776;2023-06-01T00:19:01;12.90;99.90
7920;DHT22;18778;47.610;9.776;2023-06-01T00:21:28;12.80;99.90
7920;DHT22;18778;47.610;9.776;2023-06-01T00:26:22;13.20;99.90
7920;DHT22;18778;47.610;9.776;2023-06-01T00:28:48;13.20;99.90
7920;DHT22;18778;47.610;9.776;2023-06-01T00:31:14;13.30;99.90
7920;DHT22;18778;47.610;9.776;2023-06-01T00:33:39;14.80;99.90
7920;DHT22;18778;47.610;9.776;2023-06-01T00:36:05;13.50;99.90
7920;DHT22;18778;47.610;9.776;2023-06-01T00:38:31;13.50;99.90
7920;DHT22;18778;47.610;9.776;2023-06-01T00:40:56;13.50;99.90
7920;DHT22;18778;47.610;9.776;2023-06-01T00:45:48;13.40;99.90
7920;DHT22;18778;47.610;9.776;2023-06-01T00:48:15;13.30;99.90
7920;DHT22;18778;47.610;9.776;2023-06-01T00:50:42;13.30;99.90
7920;DHT22;18778;47.610;9.776;2023-06-01T00:53:13;13.30;99.90
7920;DHT22;18778;47.610;9.776;2023-06-01T01:00:33;13.30;99.90
7920;DHT22;18778;47.610;9.776;2023-06-01T01:02:58;16.60;99.90
7920;DHT22;18778;47.610;9.776;2023-06-01T01:13:27;13.80;99.90
7920;DHT22;18778;47.610;9.776;2023-06-01T01:16:11;12.90;99.90
7920;DHT22;18778;47.610;9.776;2023-06-01T01:18:57;12.90;99.90
7920;DHT22;18778;47.610;9.776;2023-06-01T01:21:35;12.80;99.90
7920;DHT22;18778;47.610;9.776;2023-06-01T01:24:15;12.60;99.90
7920;DHT22;18778;47.610;9.776;2023-06-01T01:29:40;12.20;99.90
7920;DHT22;18778;47.610;9.776;2023-06-01T01:32:08;12.10;99.90
7920;DHT22;18778;47.610;9.776;2023-06-01T01:34:35;12.00;99.90
7920;DHT22;18778;47.610;9.776;2023-06-01T01:37:02;12.90;99.90
7920;DHT22;18778;47.610;9.776;2023-06-01T01:39:28;12.70;99.90
7920;DHT22;18778;47.610;9.776;2023-06-01T01:41:54;12.20;99.90
7920;DHT22;18778;47.610;9.776;2023-06-01T01:44:20;12.30;99.90
7920;DHT22;18778;47.610;9.776;2023-06-01T01:51:51;12.20;99.90
7920;DHT22;18778;47.610;9.776;2023-06-01T01:54:18;12.10;99.90
7920;DHT22;18778;47.610;9.776;2023-06-01T01:56:44;12.00;99.90
7920;DHT22;18778;47.610;9.776;2023-06-01T01:59:12;12.10;99.90
7920;DHT22;18778;47.610;9.776;2023-06-01T02:01:37;12.20;99.90
7920;DHT22;18778;47.610;9.776;2023-06-01T02:04:08;13.40;99.90
7920;DHT22;18778;47.610;9.776;2023-06-01T02:06:34;12.20;99.90
7920;DHT22;18778;47.610;9.776;2023-06-01T02:09:00;12.20;99.90
7920;DHT22;18778;47.610;9.776;2023-06-01T02:13:52;12.00;99.90
7920;DHT22;18778;47.610;9.776;2023-06-01T02:21:15;12.00;99.90
7920;DHT22;18778;47.610;9.776;2023-06-01T02:23:41;11.80;99.90
7920;DHT22;18778;47.610;9.776;2023-06-01T02:26:08;11.70;99.90
7920;DHT22;18778;47.610;9.776;2023-06-01T02:28:33;12.00;99.90
7920;DHT22;18778;47.610;9.776;2023-06-01T02:31:01;11.80;99.90
7920;DHT22;18778;47.610;9.776;2023-06-01T02:35:53;12.00;99.90
7920;DHT22;18778;47.610;9.776;2023-06-01T02:38:18;11.90;99.90
7920;DHT22;18778;47.610;9.776;2023-06-01T02:40:44;13.40;99.90
7920;DHT22;18778;47.610;9.776;2023-06-01T02:43:09;11.70;99.90
7920;DHT22;18778;47.610;9.776;2023-06-01T02:45:35;12.30;99.90
7920;DHT22;18778;47.610;9.776;2023-06-01T02:48:00;11.60;99.90
7920;DHT22;18778;47.610;9.776;2023-06-01T02:50:26;11.70;99.90
7920;DHT22;18778;47.610;9.776;2023-06-01T02:52:51;11.70;99.90
7920;DHT22;18778;47.610;9.776;2023-06-01T02:55:17;11.80;99.90
7920;DHT22;18778;47.610;9.776;2023-06-01T02:57:42;11.80;99.90
7920;DHT22;18778;47.610;9.776;2023-06-01T03:00:08;11.50;99.90
7920;DHT22;18778;47.610;9.776;2023-06-01T03:02:42;11.40;99.90
7920;DHT22;18778;47.610;9.776;2023-06-01T03:05:08;11.30;99.90
7920;DHT22;18778;47.610;9.776;2023-06-01T03:07:34;11.20;99.90
7920;DHT22;18778;47.610;9.776;2023-06-01T03:09:59;11.30;99.90
7920;DHT22;18778;47.610;9.776;2023-06-01T03:12:25;11.20;99.90
7920;DHT22;18778;47.610;9.776;2023-06-01T03:14:50;11.20;99.90
7920;DHT22;18778;47.610;9.776;2023-06-01T03:17:16;11.10;99.90
7920;DHT22;18778;47.610;9.776;2023-06-01T03:19:42;11.20;99.90
7920;DHT22;18778;47.610;9.776;2023-06-01T03:22:07;11.00;99.90
7920;DHT22;18778;47.610;9.776;2023-06-01T03:24:33;11.20;99.90
7920;DHT22;18778;47.610;9.776;2023-06-01T03:26:59;11.30;99.90
7920;DHT22;18778;47.610;9.776;2023-06-01T03:29:26;11.10;99.90
7920;DHT22;18778;47.610;9.776;2023-06-01T03:31:52;11.20;99.90
7920;DHT22;18778;47.610;9.776;2023-06-01T03:34:17;11.20;99.90
7920;DHT22;18778;47.610;9.776;2023-06-01T03:36:43;11.30;99.90
7920;DHT22;18778;47.610;9.776;2023-06-01T03:39:14;11.30;99.90
7920;DHT22;18778;47.610;9.776;2023-06-01T03:41:42;12.40;99.90
7920;DHT22;18778;47.610;9.776;2023-06-01T03:44:09;11.00;99.90
7920;DHT22;18778;47.610;9.776;2023-06-01T03:46:35;11.10;99.90
7920;DHT22;18778;47.610;9.776;2023-06-01T03:49:01;11.20;99.90
7920;DHT22;18778;47.610;9.776;2023-06-01T03:51:26;11.20;99.90
7920;DHT22;18778;47.610;9.776;2023-06-01T03:53:52;12.40;99.90
7920;DHT22;18778;47.610;9.776;2023-06-01T03:56:18;11.00;99.90
7920;DHT22;18778;47.610;9.776;2023-06-01T03:58:45;11.10;99.90
7920;DHT22;18778;47.610;9.776;2023-06-01T04:01:11;11.10;99.90
7920;DHT22;18778;47.610;9.776;2023-06-01T04:03:38;10.90;99.90
7920;DHT22;18778;47.610;9.776;2023-06-01T04:06:04;10.90;99.90
7920;DHT22;18778;47.610;9.776;2023-06-01T04:08:37;10.90;99.90
7920;DHT22;18778;47.610;9.776;2023-06-01T04:11:03;10.70;99.90
7920;DHT22;18778;47.610;9.776;2023-06-01T04:13:29;10.90;99.90
7920;DHT22;18778;47.610;9.776;2023-06-01T04:15:54;10.90;99.90
7920;DHT22;18778;47.610;9.776;2023-06-01T04:18:20;12.20;99.90
7920;DHT22;18778;47.610;9.776;2023-06-01T04:20:46;10.90;99.90
7920;DHT22;18778;47.610;9.776;2023-06-01T04:25:40;11.10;99.90
7920;DHT22;18778;47.610;9.776;2023-06-01T04:28:09;11.20;99.90
7920;DHT22;18778;47.610;9.776;2023-06-01T04:30:35;11.40;99.90
7920;DHT22;18778;47.610;9.776;2023-06-01T04:33:01;11.30;99.90
7920;DHT22;18778;47.610;9.776;2023-06-01T04:35:27;11.50;99.90
7920;DHT22;18778;47.610;9.776;2023-06-01T04:37:52;11.50;99.90
7920;DHT22;18778;47.610;9.776;2023-06-01T04:40:18;11.60;99.90
7920;DHT22;18778;47.610;9.776;2023-06-01T04:42:44;11.60;99.90
7920;DHT22;18778;47.610;9.776;2023-06-01T04:45:15;11.70;99.90
7920;DHT22;18778;47.610;9.776;2023-06-01T04:47:41;11.60;99.90
7920;DHT22;18778;47.610;9.776;2023-06-01T04:50:11;11.70;99.90
7920;DHT22;18778;47.610;9.776;2023-06-01T04:52:38;11.60;99.90
7920;DHT22;18778;47.610;9.776;2023-06-01T04:55:05;11.80;99.90
7920;DHT22;18778;47.610;9.776;2023-06-01T04:57:31;11.80;99.90
7920;DHT22;18778;47.610;9.776;2023-06-01T04:59:58;12.00;99.90
7920;DHT22;18778;47.610;9.776;2023-06-01T05:02:25;12.00;99.90
7920;DHT22;18778;47.610;9.776;2023-06-01T05:04:51;12.10;99.90
7920;DHT22;18778;47.610;9.776;2023-06-01T05:07:20;12.40;99.90
7920;DHT22;18778;47.610;9.776;2023-06-01T05:09:50;12.40;99.90
7920;DHT22;18778;47.610;9.776;2023-06-01T05:12:15;12.50;99.90
7920;DHT22;18778;47.610;9.776;2023-06-01T05:14:41;12.50;99.90
7920;DHT22;18778;47.610;9.776;2023-06-01T05:17:06;12.70;99.90
7920;DHT22;18778;47.610;9.776;2023-06-01T05:19:33;12.70;99.90
7920;DHT22;18778;47.610;9.776;2023-06-01T05:24:27;12.90;99.90
7920;DHT22;18778;47.610;9.776;2023-06-01T05:26:53;13.00;99.90
7920;DHT22;18778;47.610;9.776;2023-06-01T05:29:19;13.20;99.90
7920;DHT22;18778;47.610;9.776;2023-06-01T05:31:45;13.10;99.90
7920;DHT22;18778;47.610;9.776;2023-06-01T05:34:11;13.30;99.90
7920;DHT22;18778;47.610;9.776;2023-06-01T05:36:37;13.30;99.90
7920;DHT22;18778;47.610;9.776;2023-06-01T05:39:03;13.40;99.90
7920;DHT22;18778;47.610;9.776;2023-06-01T05:41:28;13.60;99.90
7920;DHT22;18778;47.610;9.776;2023-06-01T05:43:54;16.50;99.90
7920;DHT22;18778;47.610;9.776;2023-06-01T05:46:19;13.70;99.90
7920;DHT22;18778;47.610;9.776;2023-06-01T05:48:46;13.80;99.90
7920;DHT22;18778;47.610;9.776;2023-06-01T05:51:11;13.90;99.90
7920;DHT22;18778;47.610;9.776;2023-06-01T05:56:03;14.20;99.90
7920;DHT22;18778;47.610;9.776;2023-06-01T05:58:28;14.20;99.90
7920;DHT22;18778;47.610;9.776;2023-06-01T06:00:54;14.30;99.90
7920;DHT22;18778;47.610;9.776;2023-06-01T06:03:20;14.30;99.90
7920;DHT22;18778;47.610;9.776;2023-06-01T06:05:48;15.00;99.90
7920;DHT22;18778;47.610;9.776;2023-06-01T06:08:13;14.70;99.90
7920;DHT22;18778;47.610;9.776;2023-06-01T06:10:39;14.70;99.90
7920;DHT22;18778;47.610;9.776;2023-06-01T06:13:04;14.90;99.90
7920;DHT22;18778;47.610;9.776;2023-06-01T06:15:30;16.40;99.90
7920;DHT22;18778;47.610;9.776;2023-06-01T06:17:56;15.10;99.90
7920;DHT22;18778;47.610;9.776;2023-06-01T06:20:21;15.00;99.90
7920;DHT22;18778;47.610;9.776;2023-06-01T06:22:51;15.30;99.90
7920;DHT22;18778;47.610;9.776;2023-06-01T06:25:16;15.80;99.90
7920;DHT22;18778;47.610;9.776;2023-06-01T06:27:42;15.30;99.90
7920;DHT22;18778;47.610;9.776;2023-06-01T06:30:08;15.50;99.90
7920;DHT22;18778;47.610;9.776;2023-06-01T06:32:33;15.50;99.90
7920;DHT22;18778;47.610;9.776;2023-06-01T06:35:00;15.60;99.90
7920;DHT22;18778;47.610;9.776;2023-06-01T06:37:26;16.10;99.90
7920;DHT22;18778;47.610;9.776;2023-06-01T06:39:52;15.70;99.90
7920;DHT22;18778;47.610;9.776;2023-06-01T06:42:18;15.70;99.90
7920;DHT22;18778;47.610;9.776;2023-06-01T06:44:43;15.80;99.90
7920;DHT22;18778;47.610;9.776;2023-06-01T06:47:09;15.90;99.90
7920;DHT22;18778;47.610;9.776;2023-06-01T06:49:35;16.20;99.90
7920;DHT22;18778;47.610;9.776;2023-06-01T06:54:33;16.50;99.90
7920;DHT22;18778;47.610;9.776;2023-06-01T07:28:53;17.70;99.90
7920;DHT22;18778;47.610;9.776;2023-06-01T07:31:20;17.80;99.90
7920;DHT22;18778;47.610;9.776;2023-06-01T07:33:46;18.40;99.90
7920;DHT22;18778;47.610;9.776;2023-06-01T07:36:12;18.40;99.90
7920;DHT22;18778;47.610;9.776;2023-06-01T07:38:38;18.10;99.90
7920;DHT22;18778;47.610;9.776;2023-06-01T07:41:03;18.20;99.90
7920;DHT22;18778;47.610;9.776;2023-06-01T07:43:29;18.40;99.90
7920;DHT22;18778;47.610;9.776;2023-06-01T07:45:55;18.30;99.90
7920;DHT22;18778;47.610;9.776;2023-06-01T07:48:21;18.50;99.90
7920;DHT22;18778;47.610;9.776;2023-06-01T07:50:46;18.70;99.90
7920;DHT22;18778;47.610;9.776;2023-06-01T07:53:12;18.70;99.90
7920;DHT22;18778;47.610;9.776;2023-06-01T07:55:38;18.80;99.90
7920;DHT22;18778;47.610;9.776;2023-06-01T07:58:04;18.90;99.90
7920;DHT22;18778;47.610;9.776;2023-06-01T08:00:30;18.90;99.90
7920;DHT22;18778;47.610;9.776;2023-06-01T08:02:56;18.90;99.90
7920;DHT22;18778;47.610;9.776;2023-06-01T08:05:24;19.30;99.90
7920;DHT22;18778;47.610;9.776;2023-06-01T08:07:50;19.10;99.90
7920;DHT22;18778;47.610;9.776;2023-06-01T08:10:16;19.30;99.90
7920;DHT22;18778;47.610;9.776;2023-06-01T08:12:42;19.50;99.90
7920;DHT22;18778;47.610;9.776;2023-06-01T08:15:09;19.40;99.90
7920;DHT22;18778;47.610;9.776;2023-06-01T08:17:36;19.50;99.90
7920;DHT22;18778;47.610;9.776;2023-06-01T08:20:02;19.50;99.90
7920;DHT22;18778;47.610;9.776;2023-06-01T08:22:34;19.60;99.90
7920;DHT22;18778;47.610;9.776;2023-06-01T08:25:00;19.80;99.90
7920;DHT22;18778;47.610;9.776;2023-06-01T08:27:26;19.80;99.90
7920;DHT22;18778;47.610;9.776;2023-06-01T08:29:53;20.00;99.90
7920;DHT22;18778;47.610;9.776;2023-06-01T08:32:19;19.90;99.90
7920;DHT22;18778;47.610;9.776;2023-06-01T08:37:11;20.20;99.90
7920;DHT22;18778;47.610;9.776;2023-06-01T08:39:38;20.30;99.90
7920;DHT22;18778;47.610;9.776;2023-06-01T08:44:38;20.50;99.90
7920;DHT22;18778;47.610;9.776;2023-06-01T08:47:04;20.50;99.90
7920;DHT22;18778;47.610;9.776;2023-06-01T08:49:31;20.50;99.90
7920;DHT22;18778;47.610;9.776;2023-06-01T08:52:00;20.70;99.90
7920;DHT22;18778;47.610;9.776;2023-06-01T08:54:27;20.80;99.90
7920;DHT22;18778;47.610;9.776;2023-06-01T08:56:54;20.90;99.90
7920;DHT22;18778;47.610;9.776;2023-06-01T08:59:20;20.90;99.90
7920;DHT22;18778;47.610;9.776;2023-06-01T09:01:46;21.00;99.90
7920;DHT22;18778;47.610;9.776;2023-06-01T09:04:12;21.10;99.90
7920;DHT22;18778;47.610;9.776;2023-06-01T09:06:41;21.20;99.90
7920;DHT22;18778;47.610;9.776;2023-06-01T09:09:06;21.00;99.90
7920;DHT22;18778;47.610;9.776;2023-06-01T09:14:20;21.30;99.90
7920;DHT22;18778;47.610;9.776;2023-06-01T09:16:48;21.50;99.90
7920;DHT22;18778;47.610;9.776;2023-06-01T09:19:14;21.50;99.90
7920;DHT22;18778;47.610;9.776;2023-06-01T09:21:54;21.50;99.90
7920;DHT22;18778;47.610;9.776;2023-06-01T09:24:20;21.50;99.90
7920;DHT22;18778;47.610;9.776;2023-06-01T09:26:48;21.50;99.90
7920;DHT22;18778;47.610;9.776;2023-06-01T09:29:14;21.50;99.90
7920;DHT22;18778;47.610;9.776;2023-06-01T09:31:45;21.70;99.90
7920;DHT22;18778;47.610;9.776;2023-06-01T09:34:13;21.70;99.90
7920;DHT22;18778;47.610;9.776;2023-06-01T09:36:51;21.80;99.90
7920;DHT22;18778;47.610;9.776;2023-06-01T09:39:23;21.90;99.90
7920;DHT22;18778;47.610;9.776;2023-06-01T09:41:54;22.20;99.90
7920;DHT22;18778;47.610;9.776;2023-06-01T09:44:35;22.30;99.90
7920;DHT22;18778;47.610;9.776;2023-06-01T09:47:05;22.10;99.10
7920;DHT22;18778;47.610;9.776;2023-06-01T09:49:36;22.10;99.30
7920;DHT22;18778;47.610;9.776;2023-06-01T09:57:08;22.40;99.70
7920;DHT22;18778;47.610;9.776;2023-06-01T09:59:44;22.30;99.40
7920;DHT22;18778;47.610;9.776;2023-06-01T10:02:15;22.40;99.80
7920;DHT22;18778;47.610;9.776;2023-06-01T10:04:48;22.50;99.50
7920;DHT22;18778;47.610;9.776;2023-06-01T10:07:15;22.60;99.90
7920;DHT22;18778;47.610;9.776;2023-06-01T10:09:44;22.60;99.90
7920;DHT22;18778;47.610;9.776;2023-06-01T10:14:37;23.10;99.90
7920;DHT22;18778;47.610;9.776;2023-06-01T10:17:07;23.30;99.40
7920;DHT22;18778;47.610;9.776;2023-06-01T10:19:33;23.40;97.30
7920;DHT22;18778;47.610;9.776;2023-06-01T10:22:02;23.30;97.50
7920;DHT22;18778;47.610;9.776;2023-06-01T10:24:29;23.10;97.40
7920;DHT22;18778;47.610;9.776;2023-06-01T10:29:28;23.50;98.10
7920;DHT22;18778;47.610;9.776;2023-06-01T10:31:54;23.60;98.40
7920;DHT22;18778;47.610;9.776;2023-06-01T10:39:31;24.20;97.00
7920;DHT22;18778;47.610;9.776;2023-06-01T10:42:43;24.40;94.60
7920;DHT22;18778;47.610;9.776;2023-06-01T10:44:47;24.40;94.90
7920;DHT22;18778;47.610;9.776;2023-06-01T10:52:35;24.70;97.10
7920;DHT22;18778;47.610;9.776;2023-06-01T10:57:37;24.40;93.40
7920;DHT22;18778;47.610;9.776;2023-06-01T11:00:23;24.60;94.70
7920;DHT22;18778;47.610;9.776;2023-06-01T11:03:02;24.60;96.10
7920;DHT22;18778;47.610;9.776;2023-06-01T11:05:51;25.00;97.50
7920;DHT22;18778;47.610;9.776;2023-06-01T11:18:49;25.90;95.50
7920;DHT22;18778;47.610;9.776;2023-06-01T11:21:21;26.00;95.20
7920;DHT22;18778;47.610;9.776;2023-06-01T11:23:47;26.10;94.60
7920;DHT22;18778;47.610;9.776;2023-06-01T11:26:17;26.20;92.70
7920;DHT22;18778;47.610;9.776;2023-06-01T11:28:44;26.20;91.30
7920;DHT22;18778;47.610;9.776;2023-06-01T11:31:12;26.20;90.30
7920;DHT22;18778;47.610;9.776;2023-06-01T11:33:39;26.20;94.30
7920;DHT22;18778;47.610;9.776;2023-06-01T11:36:07;26.20;91.40
7920;DHT22;18778;47.610;9.776;2023-06-01T11:38:34;26.20;91.00
7920;DHT22;18778;47.610;9.776;2023-06-01T11:41:04;26.20;91.40
7920;DHT22;18778;47.610;9.776;2023-06-01T11:43:30;26.20;92.70
7920;DHT22;18778;47.610;9.776;2023-06-01T11:46:04;26.40;92.30
7920;DHT22;18778;47.610;9.776;2023-06-01T11:48:30;26.40;88.40
7920;DHT22;18778;47.610;9.776;2023-06-01T11:50:57;26.40;84.80
7920;DHT22;18778;47.610;9.776;2023-06-01T11:53:24;26.50;83.80
7920;DHT22;18778;47.610;9.776;2023-06-01T11:55:52;26.40;75.80
7920;DHT22;18778;47.610;9.776;2023-06-01T11:58:26;26.30;76.30
7920;DHT22;18778;47.610;9.776;2023-06-01T12:00:56;26.50;77.00
7920;DHT22;18778;47.610;9.776;2023-06-01T12:03:23;26.60;81.00
7920;DHT22;18778;47.610;9.776;2023-06-01T12:05:52;26.90;81.70
7920;DHT22;18778;47.610;9.776;2023-06-01T12:08:20;27.00;75.50
7920;DHT22;18778;47.610;9.776;2023-06-01T12:10:49;27.10;79.70
7920;DHT22;18778;47.610;9.776;2023-06-01T12:13:16;27.10;80.30
7920;DHT22;18778;47.610;9.776;2023-06-01T12:15:42;27.30;90.60
7920;DHT22;18778;47.610;9.776;2023-06-01T12:20:36;26.40;91.80
7920;DHT22;18778;47.610;9.776;2023-06-01T12:23:22;26.40;92.00
7920;DHT22;18778;47.610;9.776;2023-06-01T12:25:52;26.20;91.90
7920;DHT22;18778;47.610;9.776;2023-06-01T12:28:18;26.00;90.20
7920;DHT22;18778;47.610;9.776;2023-06-01T12:30:44;26.10;93.30
7920;DHT22;18778;47.610;9.776;2023-06-01T12:33:34;26.10;93.90
7920;DHT22;18778;47.610;9.776;2023-06-01T12:36:00;26.30;94.90
7920;DHT22;18778;47.610;9.776;2023-06-01T12:38:26;26.70;93.60
7920;DHT22;18778;47.610;9.776;2023-06-01T12:41:08;27.20;92.00
7920;DHT22;18778;47.610;9.776;2023-06-01T12:43:34;27.20;92.30
7920;DHT22;18778;47.610;9.776;2023-06-01T12:46:01;27.00;91.70
7920;DHT22;18778;47.610;9.776;2023-06-01T12:48:36;27.00;93.50
7920;DHT22;18778;47.610;9.776;2023-06-01T12:51:03;27.00;93.70
7920;DHT22;18778;47.610;9.776;2023-06-01T12:53:29;27.00;92.20
7920;DHT22;18778;47.610;9.776;2023-06-01T12:55:55;27.20;91.10
7920;DHT22;18778;47.610;9.776;2023-06-01T12:58:21;27.70;92.10
7920;DHT22;18778;47.610;9.776;2023-06-01T13:00:46;27.80;92.10
7920;DHT22;18778;47.610;9.776;2023-06-01T13:03:14;27.90;91.10
7920;DHT22;18778;47.610;9.776;2023-06-01T13:05:43;28.00;91.30
7920;DHT22;18778;47.610;9.776;2023-06-01T13:08:12;28.10;91.30
7920;DHT22;18778;47.610;9.776;2023-06-01T13:10:38;28.50;89.80
7920;DHT22;18778;47.610;9.776;2023-06-01T13:13:03;28.50;90.40
7920;DHT22;18778;47.610;9.776;2023-06-01T13:15:29;28.70;86.90
7920;DHT22;18778;47.610;9.776;2023-06-01T13:17:55;28.70;88.50
7920;DHT22;18778;47.610;9.776;2023-06-01T13:20:21;28.60;88.10
7920;DHT22;18778;47.610;9.776;2023-06-01T13:22:47;28.50;86.10
7920;DHT22;18778;47.610;9.776;2023-06-01T13:25:14;28.40;85.90
7920;DHT22;18778;47.610;9.776;2023-06-01T13:27:39;28.60;90.60
7920;DHT22;18778;47.610;9.776;2023-06-01T13:30:06;29.10;88.00
7920;DHT22;18778;47.610;9.776;2023-06-01T13:32:33;29.40;85.90
7920;DHT22;18778;47.610;9.776;2023-06-01T13:34:58;29.40;90.10
7920;DHT22;18778;47.610;9.776;2023-06-01T13:39:52;29.50;86.20
7920;DHT22;18778;47.610;9.776;2023-06-01T13:42:17;29.30;81.00
7920;DHT22;18778;47.610;9.776;2023-06-01T13:44:44;29.40;88.00
7920;DHT22;18778;47.610;9.776;2023-06-01T13:49:40;29.50;88.20
7920;DHT22;18778;47.610;9.776;2023-06-01T13:52:06;29.60;84.20
7920;DHT22;18778;47.610;9.776;2023-06-01T13:56:58;29.90;79.90
7920;DHT22;18778;47.610;9.776;2023-06-01T13:59:24;29.90;79.80
7920;DHT22;18778;47.610;9.776;2023-06-01T14:01:49;29.80;82.70
7920;DHT22;18778;47.610;9.776;2023-06-01T14:04:16;30.00;77.60
7920;DHT22;18778;47.610;9.776;2023-06-01T14:06:42;31.00;74.40
7920;DHT22;18778;47.610;9.776;2023-06-01T14:09:08;31.00;74.40
7920;DHT22;18778;47.610;9.776;2023-06-01T14:11:34;31.90;73.30
7920;DHT22;18778;47.610;9.776;2023-06-01T14:14:00;32.50;69.70
7920;DHT22;18778;47.610;9.776;2023-06-01T14:16:25;32.50;69.70
7920;DHT22;18778;47.610;9.776;2023-06-01T14:18:51;32.10;64.70
7920;DHT22;18778;47.610;9.776;2023-06-01T14:21:17;32.00;66.40
7920;DHT22;18778;47.610;9.776;2023-06-01T14:23:42;31.50;68.10
7920;DHT22;18778;47.610;9.776;2023-06-01T14:26:10;32.10;71.20
7920;DHT22;18778;47.610;9.776;2023-06-01T14:28:35;33.10;67.90
7920;DHT22;18778;47.610;9.776;2023-06-01T14:31:01;34.20;67.50
7920;DHT22;18778;47.610;9.776;2023-06-01T14:33:26;35.30;61.50
7920;DHT22;18778;47.610;9.776;2023-06-01T14:35:52;34.60;65.10
7920;DHT22;18778;47.610;9.776;2023-06-01T14:38:18;34.60;66.80
7920;DHT22;18778;47.610;9.776;2023-06-01T14:40:44;34.00;59.20
7920;DHT22;18778;47.610;9.776;2023-06-01T14:45:36;33.70;65.10
7920;DHT22;18778;47.610;9.776;2023-06-01T14:48:01;34.20;62.40
7920;DHT22;18778;47.610;9.776;2023-06-01T14:50:27;34.30;59.00
7920;DHT22;18778;47.610;9.776;2023-06-01T14:52:52;33.90;58.10
7920;DHT22;18778;47.610;9.776;2023-06-01T14:55:24;33.60;60.00
7920;DHT22;18778;47.610;9.776;2023-06-01T14:57:50;32.10;60.20
7920;DHT22;18778;47.610;9.776;2023-06-01T15:00:16;29.80;62.30
7920;DHT22;18778;47.610;9.776;2023-06-01T15:02:44;28.90;65.10
7920;DHT22;18778;47.610;9.776;2023-06-01T15:10:04;26.20;71.50
7920;DHT22;18778;47.610;9.776;2023-06-01T15:12:30;25.50;76.00
7920;DHT22;18778;47.610;9.776;2023-06-01T15:14:55;25.10;77.40
7920;DHT22;18778;47.610;9.776;2023-06-01T15:17:21;24.30;79.80
7920;DHT22;18778;47.610;9.776;2023-06-01T15:19:47;24.20;80.80
7920;DHT22;18778;47.610;9.776;2023-06-01T15:22:13;24.00;80.70
7920;DHT22;18778;47.610;9.776;2023-06-01T15:24:39;24.00;80.50
7920;DHT22;18778;47.610;9.776;2023-06-01T15:27:06;23.70;81.80
7920;DHT22;18778;47.610;9.776;2023-06-01T15:29:32;23.70;83.80
7920;DHT22;18778;47.610;9.776;2023-06-01T15:31:57;23.50;85.80
7920;DHT22;18778;47.610;9.776;2023-06-01T15:34:23;23.40;84.00
7920;DHT22;18778;47.610;9.776;2023-06-01T15:36:49;23.20;83.60
7920;DHT22;18778;47.610;9.776;2023-06-01T15:39:15;23.20;83.80
7920;DHT22;18778;47.610;9.776;2023-06-01T15:41:41;23.10;85.40
7920;DHT22;18778;47.610;9.776;2023-06-01T15:44:07;22.90;83.00
7920;DHT22;18778;47.610;9.776;2023-06-01T15:46:33;22.60;84.10
7920;DHT22;18778;47.610;9.776;2023-06-01T15:51:25;22.40;84.90
7920;DHT22;18778;47.610;9.776;2023-06-01T15:53:51;22.30;85.10
7920;DHT22;18778;47.610;9.776;2023-06-01T15:58:43;22.30;85.60
7920;DHT22;18778;47.610;9.776;2023-06-01T16:01:09;22.30;84.80
7920;DHT22;18778;47.610;9.776;2023-06-01T16:03:35;22.50;86.10
7920;DHT22;18778;47.610;9.776;2023-06-01T16:08:27;22.70;85.50
7920;DHT22;18778;47.610;9.776;2023-06-01T16:10:52;22.70;83.90
7920;DHT22;18778;47.610;9.776;2023-06-01T16:13:18;22.50;84.50
7920;DHT22;18778;47.610;9.776;2023-06-01T16:15:44;22.60;81.10
7920;DHT22;18778;47.610;9.776;2023-06-01T16:18:10;21.30;79.70
7920;DHT22;18778;47.610;9.776;2023-06-01T16:20:35;22.80;79.30
7920;DHT22;18778;47.610;9.776;2023-06-01T16:25:27;24.30;78.90
7920;DHT22;18778;47.610;9.776;2023-06-01T16:27:53;24.30;79.50
7920;DHT22;18778;47.610;9.776;2023-06-01T16:32:46;28.20;71.60
7920;DHT22;18778;47.610;9.776;2023-06-01T16:37:38;30.10;62.90
7920;DHT22;18778;47.610;9.776;2023-06-01T16:40:05;30.30;63.20
7920;DHT22;18778;47.610;9.776;2023-06-01T16:42:31;30.90;60.30
7920;DHT22;18778;47.610;9.776;2023-06-01T16:44:57;30.50;59.90
7920;DHT22;18778;47.610;9.776;2023-06-01T16:47:22;29.70;61.10
7920;DHT22;18778;47.610;9.776;2023-06-01T16:49:48;28.60;62.60
7920;DHT22;18778;47.610;9.776;2023-06-01T16:52:14;26.90;64.80
7920;DHT22;18778;47.610;9.776;2023-06-01T16:54:40;25.90;66.60
7920;DHT22;18778;47.610;9.776;2023-06-01T16:57:06;25.80;67.60
7920;DHT22;18778;47.610;9.776;2023-06-01T17:02:00;24.40;70.40
7920;DHT22;18778;47.610;9.776;2023-06-01T17:06:51;24.30;71.50
7920;DHT22;18778;47.610;9.776;2023-06-01T17:09:17;24.20;71.00
7920;DHT22;18778;47.610;9.776;2023-06-01T17:11:43;24.40;75.10
7920;DHT22;18778;47.610;9.776;2023-06-01T17:14:08;24.30;75.00
7920;DHT22;18778;47.610;9.776;2023-06-01T17:16:34;24.80;75.60
7920;DHT22;18778;47.610;9.776;2023-06-01T17:18:59;25.30;74.90
7920;DHT22;18778;47.610;9.776;2023-06-01T17:21:25;25.40;73.00
7920;DHT22;18778;47.610;9.776;2023-06-01T17:23:51;25.30;70.80
7920;DHT22;18778;47.610;9.776;2023-06-01T17:26:16;24.80;69.50
7920;DHT22;18778;47.610;9.776;2023-06-01T17:31:08;24.70;71.90
7920;DHT22;18778;47.610;9.776;2023-06-01T17:36:00;24.30;76.50
7920;DHT22;18778;47.610;9.776;2023-06-01T17:38:25;24.20;78.60
7920;DHT22;18778;47.610;9.776;2023-06-01T17:40:51;24.10;79.00
7920;DHT22;18778;47.610;9.776;2023-06-01T17:43:17;24.10;79.00
7920;DHT22;18778;47.610;9.776;2023-06-01T17:48:08;23.90;81.50
7920;DHT22;18778;47.610;9.776;2023-06-01T17:50:34;23.70;83.00
7920;DHT22;18778;47.610;9.776;2023-06-01T17:53:00;23.70;82.70
7920;DHT22;18778;47.610;9.776;2023-06-01T17:55:25;23.60;83.20
7920;DHT22;18778;47.610;9.776;2023-06-01T17:57:51;23.30;79.70
7920;DHT22;18778;47.610;9.776;2023-06-01T18:00:17;23.30;80.30
7920;DHT22;18778;47.610;9.776;2023-06-01T18:05:11;22.70;80.70
7920;DHT22;18778;47.610;9.776;2023-06-01T18:07:37;22.70;86.50
7920;DHT22;18778;47.610;9.776;2023-06-01T18:10:02;22.30;90.50
7920;DHT22;18778;47.610;9.776;2023-06-01T18:12:28;22.30;90.50
7920;DHT22;18778;47.610;9.776;2023-06-01T18:14:55;21.80;91.50
7920;DHT22;18778;47.610;9.776;2023-06-01T18:17:21;21.60;91.10
7920;DHT22;18778;47.610;9.776;2023-06-01T18:19:47;21.60;91.70
7920;DHT22;18778;47.610;9.776;2023-06-01T18:22:13;21.40;92.60
7920;DHT22;18778;47.610;9.776;2023-06-01T18:24:38;21.40;92.30
7920;DHT22;18778;47.610;9.776;2023-06-01T18:27:04;21.10;90.80
7920;DHT22;18778;47.610;9.776;2023-06-01T18:29:30;21.10;91.20